Time;durP1;ratioP1;P1;durP2;ratioP2;P2;SDS_P1;SDS_P2;PMS_P1;PMS_P2;Temp;Humidity;BMP_temperature;BMP_pressure;BME280_temperature;BME280_humidity;BME280_pressure;Samples;Min_cycle;Max_cycle;Signal;HPM_P1;HPM_P2
2024/02/11 00:35:17;;;;;;;58.50;29.40;;;;;;;7.32;99.47;96497.70;435304;1255;109844;-38
2024/02/11 00:45:29;;;;;;;55.70;29.30;;;;;;;7.43;99.42;96501.92;435362;1255;109193;-40
2024/02/11 01:05:42;;;;;;;44.50;19.80;;;;;;;7.53;99.84;96490.09;435431;1254;108808;-40
2024/02/11 01:15:49;;;;;;;31.30;15.50;;;;;;;7.79;99.86;96474.52;435357;1254;107621;-40
2024/02/11 01:25:56;;;;;;;42.00;19.00;;;;;;;7.93;99.69;96468.09;435414;1254;97980;-40
2024/02/11 01:36:03;;;;;;;55.30;29.20;;;;;;;7.98;99.62;96460.23;435365;1266;108208;-39
2024/02/11 01:46:11;;;;;;;65.30;28.80;;;;;;;7.93;99.60;96452.73;435358;1250;97579;-40
2024/02/11 01:56:20;;;;;;;46.90;21.70;;;;;;;7.82;99.82;96447.58;435287;1250;111565;-41
2024/02/11 02:06:28;;;;;;;41.50;20.60;;;;;;;7.84;99.93;96438.64;435243;1254;106659;-39
2024/02/11 02:16:35;;;;;;;37.50;19.30;;;;;;;7.93;99.88;96433.66;436096;1254;97855;-41
2024/02/11 02:26:43;;;;;;;37.80;18.90;;;;;;;8.05;99.96;96426.34;435354;1257;108470;-41
2024/02/11 02:36:50;;;;;;;37.70;18.70;;;;;;;8.13;100.00;96421.01;435300;1251;97963;-41
2024/02/11 02:46:58;;;;;;;39.50;20.10;;;;;;;8.16;100.00;96418.56;435162;1257;112057;-39
2024/02/11 02:57:07;;;;;;;35.80;18.00;;;;;;;8.17;100.00;96417.36;435377;1251;108298;-40
2024/02/11 03:07:14;;;;;;;32.10;17.70;;;;;;;8.07;100.00;96411.38;435433;1255;97778;-40
2024/02/11 03:17:21;;;;;;;31.00;17.20;;;;;;;7.94;99.88;96414.25;435248;1257;109726;-43
2024/02/11 03:27:30;;;;;;;44.30;22.10;;;;;;;7.85;99.94;96411.44;435325;1255;108146;-38
2024/02/11 03:37:37;;;;;;;40.00;22.50;;;;;;;7.79;99.88;96404.48;435351;1251;97972;-42
2024/02/11 03:47:44;;;;;;;35.80;18.90;;;;;;;7.79;99.96;96395.11;435328;1256;107361;-40
2024/02/11 04:07:58;;;;;;;32.70;19.60;;;;;;;7.82;100.00;96370.03;435044;1251;560776;-41
2024/02/11 04:18:10;;;;;;;27.80;16.70;;;;;;;7.88;100.00;96361.70;435302;1256;108478;-39
2024/02/11 04:28:20;;;;;;;32.50;18.00;;;;;;;7.97;100.00;96350.34;435405;1257;97890;-41
2024/02/11 04:38:27;;;;;;;35.00;21.20;;;;;;;8.02;100.00;96336.38;435429;1250;108974;-39
2024/02/11 04:48:35;;;;;;;36.10;20.20;;;;;;;7.99;100.00;96327.77;435423;1250;97934;-39
2024/02/11 04:58:42;;;;;;;35.00;14.70;;;;;;;8.01;100.00;96322.02;435418;1256;110217;-39
2024/02/11 05:08:49;;;;;;;27.40;14.50;;;;;;;8.07;100.00;96321.73;435300;1251;108643;-40
2024/02/11 05:29:03;;;;;;;32.80;18.40;;;;;;;7.79;100.00;96317.15;435431;1256;107233;-39
2024/02/11 05:39:10;;;;;;;31.90;17.20;;;;;;;7.68;100.00;96306.50;435321;1263;96701;-39
2024/02/11 05:49:19;;;;;;;30.50;19.60;;;;;;;7.63;100.00;96303.48;435415;1257;109713;-39
2024/02/11 05:59:26;;;;;;;40.30;23.10;;;;;;;7.58;100.00;96304.75;435437;1256;108759;-40
2024/02/11 06:09:33;;;;;;;43.80;23.20;;;;;;;7.56;100.00;96309.05;435295;1257;97905;-38
2024/02/11 06:29:45;;;;;;;50.90;24.30;;;;;;;7.58;100.00;96310.47;435481;1254;97489;-40
2024/02/11 06:39:53;;;;;;;32.90;20.40;;;;;;;7.56;100.00;96322.41;435182;1256;110595;-38
2024/02/11 06:50:01;;;;;;;44.70;24.50;;;;;;;7.59;100.00;96334.10;435308;1256;108403;-39
2024/02/11 07:00:12;;;;;;;42.70;25.40;;;;;;;7.67;100.00;96325.92;435460;1251;97974;-39
2024/02/11 07:10:20;;;;;;;37.70;23.00;;;;;;;7.69;100.00;96331.22;435352;1254;109965;-40
2024/02/11 07:20:27;;;;;;;35.20;21.30;;;;;;;7.72;100.00;96326.64;435478;1256;97902;-39
2024/02/11 07:30:34;;;;;;;54.60;26.20;;;;;;;7.74;100.00;96320.73;435482;1256;110730;-40
2024/02/11 07:40:45;;;;;;;41.50;24.70;;;;;;;7.82;100.00;96327.20;435231;1257;110349;-40
2024/02/11 07:50:52;;;;;;;43.50;27.60;;;;;;;7.75;100.00;96330.67;435340;1255;97502;-38
2024/02/11 08:00:59;;;;;;;54.10;30.30;;;;;;;7.69;100.00;96335.54;435315;1256;110405;-40
2024/02/11 08:11:08;;;;;;;44.70;28.50;;;;;;;7.76;100.00;96335.41;435526;1256;107646;-40
2024/02/11 08:21:15;;;;;;;49.10;29.00;;;;;;;7.87;100.00;96333.08;435379;1256;97456;-40
2024/02/11 08:31:23;;;;;;;44.90;26.90;;;;;;;8.06;100.00;96317.79;435414;1257;111545;-39
2024/02/11 08:41:30;;;;;;;41.70;23.70;;;;;;;8.33;100.00;96303.98;435331;1257;108239;-40
2024/02/11 08:51:38;;;;;;;42.30;26.40;;;;;;;8.44;100.00;96302.63;435403;1254;97494;-38
2024/02/11 09:01:50;;;;;;;49.10;30.80;;;;;;;8.32;100.00;96305.27;435414;1256;107231;-39
2024/02/11 09:32:10;;;;;;;41.40;23.20;;;;;;;8.19;100.00;96311.94;435124;1254;107864;-40
2024/02/11 09:42:20;;;;;;;37.30;25.30;;;;;;;8.26;100.00;96311.69;435415;1264;97893;-38
2024/02/11 09:52:27;;;;;;;40.20;26.50;;;;;;;8.39;100.00;96319.35;435363;1254;106440;-39
2024/02/11 10:02:37;;;;;;;41.00;28.70;;;;;;;8.49;100.00;96314.03;435412;1255;97992;-39
2024/02/11 10:12:41;;;;;;;;;;;;;;;8.58;100.00;96312.77;435355;1252;108145;-40
2024/02/11 10:32:55;;;;;;;43.90;28.00;;;;;;;9.00;100.00;96288.17;435303;1254;97346;-39
2024/02/11 10:53:12;;;;;;;47.70;26.00;;;;;;;9.47;100.00;96272.66;435284;1254;107342;-40
2024/02/11 11:13:28;;;;;;;58.70;30.30;;;;;;;9.50;100.00;96264.98;435343;1254;106794;-38
2024/02/11 11:33:44;;;;;;;43.10;26.90;;;;;;;9.49;100.00;96275.65;435410;1251;110097;-40
2024/02/11 11:44:00;;;;;;;42.00;26.80;;;;;;;9.56;100.00;96277.38;435554;1251;106782;-40
2024/02/11 11:54:06;;;;;;;44.90;28.60;;;;;;;9.60;100.00;96275.89;435310;1250;97893;-40
2024/02/11 12:04:14;;;;;;;42.70;26.70;;;;;;;9.58;100.00;96276.13;435484;1254;107446;-40
2024/02/11 12:14:22;;;;;;;38.00;24.00;;;;;;;9.55;100.00;96274.38;435422;1254;96952;-39
2024/02/11 12:24:29;;;;;;;38.40;23.40;;;;;;;9.61;100.00;96269.28;435275;1254;109822;-39
2024/02/11 12:34:38;;;;;;;35.50;23.20;;;;;;;9.65;100.00;96261.91;435210;1254;108342;-40
2024/02/11 12:44:47;;;;;;;46.70;28.20;;;;;;;9.70;100.00;96254.09;435349;1254;98663;-39
2024/02/11 12:54:54;;;;;;;40.80;26.70;;;;;;;9.72;100.00;96244.27;435307;1254;107368;-40
2024/02/11 13:05:02;;;;;;;41.40;25.40;;;;;;;9.66;100.00;96238.09;435773;1250;97864;-40
2024/02/11 13:15:11;;;;;;;32.90;22.90;;;;;;;9.57;100.00;96238.27;435368;1254;111192;-38
2024/02/11 13:25:20;;;;;;;44.90;25.50;;;;;;;9.58;100.00;96238.36;435477;1254;106558;-40
2024/02/11 13:35:27;;;;;;;43.60;26.60;;;;;;;9.57;100.00;96235.04;435456;1264;97938;-39
2024/02/11 13:45:34;;;;;;;32.20;20.20;;;;;;;9.53;100.00;96241.21;435807;1254;107021;-41
2024/02/11 13:55:40;;;;;;;29.00;21.00;;;;;;;9.48;100.00;96242.31;435329;1254;97469;-39
2024/02/11 14:05:49;;;;;;;37.90;25.00;;;;;;;9.39;100.00;96245.04;435402;1254;108977;-40
2024/02/11 14:16:32;;;;;;;43.50;26.10;;;;;;;9.25;100.00;96235.80;435437;1254;106318;-40
2024/02/11 14:26:37;;;;;;;42.40;28.00;;;;;;;9.20;100.00;96231.41;435215;1254;97773;-39
2024/02/11 14:36:44;;;;;;;43.00;27.70;;;;;;;9.18;100.00;96230.80;435284;1254;107841;-39
2024/02/11 14:57:05;;;;;;;40.20;24.60;;;;;;;9.18;100.00;96230.48;435279;1257;110107;-39
2024/02/11 15:07:12;;;;;;;47.70;28.10;;;;;;;9.18;100.00;96232.11;435138;1254;107491;-40
2024/02/11 15:17:20;;;;;;;48.90;30.50;;;;;;;9.19;100.00;96238.70;435382;1250;98012;-40
2024/02/11 15:27:27;;;;;;;43.10;28.90;;;;;;;9.13;100.00;96238.23;435414;1250;108348;-38
2024/02/11 15:37:34;;;;;;;40.50;30.00;;;;;;;8.99;100.00;96244.42;435395;1250;97456;-39
2024/02/11 15:47:41;;;;;;;67.00;43.40;;;;;;;8.89;100.00;96242.71;435210;1254;110778;-40
2024/02/11 15:57:49;;;;;;;98.80;54.70;;;;;;;8.88;100.00;96253.90;435441;1250;108325;-39
2024/02/11 16:07:56;;;;;;;53.80;33.60;;;;;;;8.87;100.00;96256.50;435187;1250;376167;-39
2024/02/11 16:18:03;;;;;;;39.70;26.30;;;;;;;8.84;100.00;96259.00;435209;1254;107853;-41
2024/02/11 16:28:09;;;;;;;32.60;23.30;;;;;;;8.81;100.00;96267.30;435320;1250;97863;-39
2024/02/11 16:48:24;;;;;;;61.90;32.50;;;;;;;8.74;100.00;96274.35;435309;1254;107037;-40
2024/02/11 16:58:32;;;;;;;30.50;20.20;;;;;;;8.70;100.00;96281.80;435413;1254;98095;-41
2024/02/11 17:08:40;;;;;;;22.60;17.10;;;;;;;8.67;100.00;96286.52;435427;1254;107987;-39
2024/02/11 17:18:49;;;;;;;24.10;15.00;;;;;;;8.63;100.00;96289.50;435505;1250;97911;-40
2024/02/11 17:49:13;;;;;;;37.40;23.30;;;;;;;8.52;100.00;96295.42;435272;1250;97935;-42
2024/02/11 17:59:22;;;;;;;38.90;24.80;;;;;;;8.50;100.00;96292.98;435421;1254;108792;-40
2024/02/11 18:09:29;;;;;;;43.10;28.00;;;;;;;8.46;100.00;96298.61;435453;1256;97471;-39
2024/02/11 18:19:37;;;;;;;38.90;25.20;;;;;;;8.44;100.00;96306.58;435346;1250;110491;-40
2024/02/11 18:29:44;;;;;;;35.80;25.60;;;;;;;8.42;100.00;96310.38;435330;1254;107824;-39
2024/02/11 18:39:52;;;;;;;44.00;24.90;;;;;;;8.40;100.00;96313.55;435337;1250;98036;-40
2024/02/11 18:50:00;;;;;;;38.20;24.30;;;;;;;8.39;100.00;96316.73;435336;1254;107247;-40
2024/02/11 19:00:07;;;;;;;33.20;22.60;;;;;;;8.38;100.00;96319.84;435280;1254;96562;-39
2024/02/11 19:20:20;;;;;;;39.90;22.30;;;;;;;8.33;100.00;96325.54;435653;1254;107819;-40
2024/02/11 19:30:26;;;;;;;38.90;21.80;;;;;;;8.40;100.00;96334.25;435249;1254;97928;-40
2024/02/11 19:40:33;;;;;;;34.90;20.10;;;;;;;8.40;100.00;96334.84;435430;1250;108956;-40
2024/02/11 20:10:51;;;;;;;28.20;18.30;;;;;;;8.38;100.00;96350.80;435426;1254;107483;-39
2024/02/11 20:20:57;;;;;;;28.50;17.50;;;;;;;8.41;100.00;96348.15;435293;1250;97895;-39
2024/02/11 20:31:05;;;;;;;28.40;19.50;;;;;;;8.43;100.00;96356.88;435350;1254;108398;-39
2024/02/11 21:01:30;;;;;;;27.90;20.40;;;;;;;8.46;100.00;96384.88;435229;1255;108472;-40
2024/02/11 21:11:37;;;;;;;33.10;21.40;;;;;;;8.48;100.00;96389.41;435442;1254;97992;-40
2024/02/11 21:21:45;;;;;;;31.10;21.30;;;;;;;8.52;100.00;96395.14;435333;1253;109431;-40
2024/02/11 21:31:52;;;;;;;32.90;22.20;;;;;;;8.54;100.00;96398.30;435321;1256;96675;-40
2024/02/11 21:42:00;;;;;;;30.90;20.60;;;;;;;8.56;100.00;96406.77;435448;1250;109618;-40
2024/02/11 21:52:09;;;;;;;33.10;21.60;;;;;;;8.59;100.00;96412.08;435364;1255;108017;-40
2024/02/11 22:02:16;;;;;;;29.40;19.60;;;;;;;8.66;100.00;96419.73;435461;1256;96631;-40
2024/02/11 22:12:24;;;;;;;30.40;20.70;;;;;;;8.74;100.00;96429.64;435276;1256;107940;-40
2024/02/11 22:22:32;;;;;;;23.70;15.70;;;;;;;8.75;100.00;96439.50;435232;1256;97915;-43
2024/02/11 22:32:40;;;;;;;21.00;15.80;;;;;;;8.76;100.00;96444.02;435465;1254;110857;-40
2024/02/11 22:42:47;;;;;;;19.50;14.40;;;;;;;8.77;100.00;96448.45;435268;1255;107345;-39
2024/02/11 22:52:54;;;;;;;17.40;12.70;;;;;;;8.77;100.00;96454.84;435430;1256;97470;-40
2024/02/11 23:03:04;;;;;;;15.70;11.40;;;;;;;8.76;100.00;96469.48;435413;1250;108160;-39
2024/02/11 23:23:19;;;;;;;13.40;10.00;;;;;;;8.67;100.00;96493.54;435323;1256;110496;-39
2024/02/11 23:43:34;;;;;;;14.40;10.60;;;;;;;8.56;100.00;96508.71;435158;1250;97496;-39
2024/02/11 23:53:41;;;;;;;16.80;11.50;;;;;;;8.54;100.00;96509.82;435367;1256;107798;-41
